LOWI/INN METAR and TAF weather

Enter ICAO airport designator
Station Type Date Time Source
LOWI METAR 2024/05/28 22:20 UTC NOAA

LOWI 282220Z AUTO 32002KT 9999 FEW070 10/09 Q1021


Station Type Date Time Source
LOWI Decoded METAR 2024/05/28 22:20 UTC NOAA

Innsbruck-Flughafen, Austria (LOWI) 47-16N 011-21E 593M
May 28, 2024 - 06:20 PM EDT / 2024.05.28 2220 UTC
Wind: from the NW (320 degrees) at 2 MPH (2 KT):0
Visibility: greater than 7 mile(s):0
Sky conditions: mostly clear
Temperature: 50 F (10 C)
Dew Point: 48 F (9 C)
Relative Humidity: 93%
Pressure (altimeter): 30.15 in. Hg (1021 hPa)
ob: LOWI 282220Z AUTO 32002KT 9999 FEW070 10/09 Q1021
cycle: 22

Station Type Date Time Source
LOWI TAF 2024/05/28 18:21 UTC NOAA